createdAt,value
2019-03-23T00:00:02.807Z,75.73
2019-03-23T00:05:05.444Z,77.83
2019-03-23T00:10:07.585Z,72.00
2019-03-23T00:15:09.717Z,73.33
2019-03-23T00:20:11.860Z,71.70
2019-03-23T00:25:14.046Z,71.47
2019-03-23T00:30:16.195Z,70.17
2019-03-23T00:35:18.773Z,71.80
2019-03-23T00:40:20.858Z,71.27
2019-03-23T00:45:23.003Z,70.40
2019-03-23T00:50:25.501Z,70.93
2019-03-23T00:55:28.015Z,72.00
2019-03-23T01:00:30.172Z,69.90
2019-03-23T01:05:32.323Z,69.50
2019-03-23T01:10:34.479Z,70.30
2019-03-23T01:15:36.577Z,68.80
2019-03-23T01:20:49.141Z,67.30
2019-03-23T01:25:42.722Z,68.23
2019-03-23T01:30:44.894Z,62.93
2019-03-23T01:35:46.993Z,58.73
2019-03-23T01:40:49.142Z,59.30
2019-03-23T01:45:51.279Z,59.47
2019-03-23T01:50:53.487Z,59.30
2019-03-23T01:55:56.052Z,59.10
2019-03-23T02:00:58.655Z,57.47
2019-03-23T02:06:00.802Z,57.00
2019-03-23T02:11:02.957Z,53.70
2019-03-23T02:16:05.062Z,56.23
2019-03-23T02:21:07.208Z,56.73
2019-03-23T02:26:09.424Z,53.40
2019-03-23T02:31:12.521Z,54.37
2019-03-23T02:36:14.669Z,53.47
2019-03-23T02:41:17.447Z,53.70
2019-03-23T02:46:19.639Z,54.13
2019-03-23T02:51:21.863Z,58.70
2019-03-23T02:56:23.978Z,57.07
2019-03-23T03:01:26.132Z,58.63
2019-03-23T03:06:28.302Z,58.93
2019-03-23T03:11:30.436Z,55.70
2019-03-23T03:16:32.586Z,56.33
2019-03-23T03:21:34.804Z,59.53
2019-03-23T03:26:37.217Z,57.37
2019-03-23T03:31:39.379Z,57.50
2019-03-23T03:36:41.957Z,56.80
2019-03-23T03:41:44.170Z,58.63
2019-03-23T03:46:46.333Z,56.47
2019-03-23T03:51:48.474Z,58.63
2019-03-23T03:56:50.920Z,56.97
2019-03-23T04:01:53.141Z,53.70
2019-03-23T04:06:55.295Z,55.50
2019-03-23T04:11:57.539Z,55.20
2019-03-23T04:16:59.718Z,57.70
2019-03-23T04:22:01.987Z,56.53
2019-03-23T04:27:04.089Z,56.50
2019-03-23T04:32:06.681Z,55.83
2019-03-23T04:37:08.795Z,56.17
2019-03-23T04:42:10.906Z,55.33
2019-03-23T04:47:13.098Z,55.07
2019-03-23T04:52:15.266Z,55.33
2019-03-23T04:57:17.420Z,56.07
2019-03-23T05:02:19.591Z,58.87
2019-03-23T05:07:21.745Z,55.40
2019-03-23T05:12:23.911Z,54.27
2019-03-23T05:17:26.069Z,54.87
2019-03-23T05:22:28.384Z,55.93
2019-03-23T05:27:30.549Z,54.07
2019-03-23T05:32:32.659Z,56.33
2019-03-23T05:37:34.754Z,54.37
2019-03-23T05:42:36.959Z,53.13
2019-03-23T05:47:39.063Z,53.03
2019-03-23T05:52:41.261Z,54.13
2019-03-23T05:57:43.369Z,68.93
2019-03-23T06:02:45.514Z,54.43
2019-03-23T06:07:47.662Z,54.23
2019-03-23T06:12:50.939Z,53.17
2019-03-23T06:17:53.227Z,51.23
2019-03-23T06:22:56.153Z,51.23
2019-03-23T06:27:58.619Z,51.83
2019-03-23T06:33:01.119Z,50.03
2019-03-23T06:38:03.294Z,53.40
2019-03-23T06:43:05.473Z,51.67
2019-03-23T06:48:07.612Z,55.13
2019-03-23T06:53:10.254Z,50.57
2019-03-23T06:58:12.490Z,53.33
2019-03-23T07:03:16.777Z,51.40
2019-03-23T07:08:31.302Z,49.57
2019-03-23T07:13:25.775Z,49.20
2019-03-23T07:18:27.958Z,53.00
2019-03-23T07:23:32.117Z,49.20
2019-03-23T07:28:34.226Z,49.87
2019-03-23T07:33:36.416Z,49.60
2019-03-23T07:38:38.915Z,49.17
2019-03-23T07:43:41.369Z,47.83
2019-03-23T07:48:43.536Z,49.17
2019-03-23T07:53:45.785Z,48.97
2019-03-23T07:58:47.949Z,48.53
2019-03-23T08:03:50.482Z,46.70
2019-03-23T08:08:52.939Z,47.53
2019-03-23T08:13:55.115Z,45.37
2019-03-23T08:18:57.731Z,46.47
2019-03-23T08:24:00.250Z,46.13
2019-03-23T08:29:03.319Z,46.57
2019-03-23T08:34:05.683Z,43.03
2019-03-23T08:39:07.866Z,41.67
2019-03-23T08:44:10.441Z,41.40
2019-03-23T08:49:12.584Z,41.03
2019-03-23T08:54:14.733Z,40.93
2019-03-23T08:59:20.191Z,40.13
2019-03-23T09:04:22.985Z,40.20
2019-03-23T09:09:25.231Z,39.03
2019-03-23T09:14:27.911Z,39.53
2019-03-23T09:19:30.146Z,41.53
2019-03-23T09:24:32.449Z,39.97
2019-03-23T09:29:34.734Z,39.33
2019-03-23T09:34:37.501Z,39.37
2019-03-23T09:39:39.969Z,39.33
2019-03-23T09:44:42.702Z,36.57
2019-03-23T09:49:45.003Z,36.00
2019-03-23T09:54:47.206Z,35.63
2019-03-23T09:59:50.653Z,35.50
2019-03-23T10:04:52.802Z,36.77
2019-03-23T10:09:54.974Z,35.73
2019-03-23T10:14:57.216Z,36.47
2019-03-23T10:19:59.657Z,35.33
2019-03-23T10:25:01.955Z,35.10
2019-03-23T10:30:04.451Z,36.30
2019-03-23T10:35:06.788Z,35.20
2019-03-23T10:40:09.005Z,34.70
2019-03-23T10:45:11.270Z,33.27
2019-03-23T10:50:13.588Z,35.13
2019-03-23T10:55:15.780Z,34.67
2019-03-23T11:00:18.092Z,34.43
2019-03-23T11:05:20.440Z,33.17
2019-03-23T11:10:22.547Z,34.00
2019-03-23T11:15:25.475Z,34.17
2019-03-23T11:20:27.556Z,33.17
2019-03-23T11:25:29.781Z,32.97
2019-03-23T11:30:32.882Z,32.47
2019-03-23T11:35:35.125Z,33.43
2019-03-23T11:40:37.306Z,32.73
2019-03-23T11:45:39.981Z,34.33
2019-03-23T11:50:42.238Z,34.30
2019-03-23T11:55:44.483Z,33.00
2019-03-23T12:00:46.633Z,36.03
2019-03-23T12:05:48.976Z,35.13
2019-03-23T12:10:51.268Z,33.13
2019-03-23T12:15:53.729Z,32.83
2019-03-23T12:20:55.961Z,30.70
2019-03-23T12:25:58.148Z,27.97
2019-03-23T12:31:00.312Z,27.27
2019-03-23T12:36:02.543Z,26.80
2019-03-23T12:41:14.213Z,29.00
2019-03-23T12:46:09.583Z,30.53
2019-03-23T12:51:11.878Z,31.57
2019-03-23T12:56:14.188Z,29.00
2019-03-23T13:01:16.719Z,25.73
2019-03-23T13:06:18.935Z,21.37
2019-03-23T13:11:24.668Z,15.40
2019-03-23T13:16:26.231Z,16.90
2019-03-23T13:21:28.885Z,21.13
2019-03-23T13:26:31.129Z,21.50
2019-03-23T13:31:35.398Z,22.87
2019-03-23T13:36:37.445Z,24.10
2019-03-23T13:41:49.442Z,29.07
2019-03-23T13:46:51.735Z,27.20
2019-03-23T13:51:54.074Z,24.53
2019-03-23T13:56:56.353Z,16.57
2019-03-23T14:01:58.679Z,11.77
2019-03-23T14:07:01.021Z,11.77
2019-03-23T14:12:03.771Z,13.33
2019-03-23T14:17:06.560Z,12.10
2019-03-23T14:22:09.044Z,10.00
2019-03-23T14:27:11.262Z,8.80
2019-03-23T14:32:13.459Z,7.73
2019-03-23T14:37:15.967Z,7.17
2019-03-23T14:42:18.201Z,7.13
2019-03-23T14:47:21.903Z,6.93
2019-03-23T14:52:24.243Z,5.60
2019-03-23T14:57:26.929Z,5.43
2019-03-23T15:02:29.330Z,4.73
2019-03-23T15:07:31.584Z,4.47
2019-03-23T15:12:34.324Z,4.47
2019-03-23T15:17:37.627Z,3.57
2019-03-23T15:22:40.142Z,4.23
2019-03-23T15:27:43.210Z,3.60
2019-03-23T15:32:45.533Z,3.40
2019-03-23T15:37:51.061Z,4.80
2019-03-23T15:42:53.194Z,3.07
2019-03-23T15:47:56.770Z,3.30
2019-03-23T15:52:59.081Z,3.10
2019-03-23T15:58:01.866Z,4.30
2019-03-23T16:03:04.456Z,3.53
2019-03-23T16:08:06.784Z,3.60
2019-03-23T16:13:09.721Z,3.10
2019-03-23T16:18:12.001Z,3.87
2019-03-23T16:23:14.734Z,4.03
2019-03-23T16:28:17.185Z,3.37
2019-03-23T16:33:19.538Z,4.20
2019-03-23T16:38:21.974Z,3.03
2019-03-23T16:43:25.330Z,2.77
2019-03-23T16:48:29.582Z,3.73
2019-03-23T16:53:31.819Z,3.10
2019-03-23T16:58:34.200Z,3.57
2019-03-23T17:03:36.499Z,2.73
2019-03-23T17:08:38.794Z,2.93
2019-03-23T17:13:41.104Z,3.67
2019-03-23T17:18:44.895Z,3.20
2019-03-23T17:23:47.283Z,3.47
2019-03-23T17:28:52.168Z,3.23
2019-03-23T17:33:54.751Z,3.60
2019-03-23T17:38:59.351Z,3.37
2019-03-23T17:44:02.022Z,3.43
2019-03-23T17:49:04.313Z,3.37
2019-03-23T17:54:07.232Z,3.60
2019-03-23T17:59:09.794Z,4.10
2019-03-23T18:04:12.046Z,4.00
2019-03-23T18:09:16.656Z,4.30
2019-03-23T18:14:26.257Z,4.10
2019-03-23T18:19:28.646Z,3.60
2019-03-23T18:24:32.545Z,3.93
2019-03-23T18:29:35.490Z,3.70
2019-03-23T18:34:37.949Z,3.60
2019-03-23T18:39:41.037Z,3.57
2019-03-23T18:44:44.332Z,4.10
2019-03-23T18:49:49.523Z,4.20
2019-03-23T18:54:52.190Z,3.97
2019-03-23T18:59:54.769Z,3.87
2019-03-23T19:04:57.613Z,5.17
2019-03-23T19:10:00.693Z,4.23
2019-03-23T19:15:04.918Z,4.27
2019-03-23T19:20:08.113Z,4.33
2019-03-23T19:25:16.097Z,4.97
2019-03-23T19:30:15.782Z,4.97
2019-03-23T19:35:21.242Z,4.80
2019-03-23T19:40:25.456Z,5.13
2019-03-23T19:45:27.998Z,4.77
2019-03-23T19:50:30.347Z,4.90
2019-03-23T19:55:33.067Z,5.93
2019-03-23T20:00:36.245Z,5.70
2019-03-23T20:05:38.968Z,5.63
2019-03-23T20:10:41.656Z,6.30
2019-03-23T20:15:44.045Z,5.50
2019-03-23T20:20:47.668Z,5.53
2019-03-23T20:25:52.874Z,5.97
2019-03-23T20:30:57.270Z,4.60
2019-03-23T20:36:01.848Z,6.27
2019-03-23T20:41:07.223Z,6.17
2019-03-23T20:46:09.405Z,4.30
2019-03-23T20:51:12.465Z,5.33
2019-03-23T20:56:14.701Z,5.20
2019-03-23T21:01:24.483Z,5.47
2019-03-23T21:06:28.323Z,6.40
2019-03-23T21:11:30.786Z,6.63
2019-03-23T21:16:33.045Z,5.83
2019-03-23T21:21:38.086Z,5.47
2019-03-23T21:26:46.457Z,5.20
2019-03-23T21:31:49.472Z,5.90
2019-03-23T21:36:51.935Z,5.43
2019-03-23T21:41:54.370Z,5.90
2019-03-23T21:47:02.773Z,6.33
2019-03-23T21:52:05.127Z,5.87
2019-03-23T21:57:07.532Z,5.30
2019-03-23T22:02:14.364Z,6.50
2019-03-23T22:07:19.879Z,6.57
2019-03-23T22:12:22.288Z,7.13
2019-03-23T22:17:24.923Z,6.70
2019-03-23T22:22:27.557Z,6.87
2019-03-23T22:27:30.226Z,6.10
2019-03-23T22:32:33.198Z,5.90
2019-03-23T22:37:37.042Z,6.47
2019-03-23T22:42:39.423Z,6.30
2019-03-23T22:47:42.631Z,5.47
2019-03-23T22:52:44.923Z,5.50
2019-03-23T22:57:47.725Z,6.00
2019-03-23T23:02:50.070Z,5.70
2019-03-23T23:07:52.700Z,5.73
2019-03-23T23:12:55.348Z,5.80
2019-03-23T23:18:00.719Z,5.33
2019-03-23T23:23:02.988Z,5.87
2019-03-23T23:28:05.888Z,5.77
2019-03-23T23:33:08.543Z,5.43
2019-03-23T23:38:11.964Z,6.53
2019-03-23T23:43:16.279Z,5.63
2019-03-23T23:48:20.130Z,5.93
2019-03-23T23:53:23.870Z,5.93
2019-03-23T23:58:27.527Z,6.37
